createdAt,value
2022-10-12T00:00:35.640Z,0.00
2022-10-12T00:01:35.747Z,0.00
2022-10-12T00:02:35.699Z,0.00
2022-10-12T00:03:35.739Z,0.00
2022-10-12T00:04:36.068Z,0.00
2022-10-12T00:05:35.813Z,0.00
2022-10-12T00:06:35.820Z,0.00
2022-10-12T00:07:36.217Z,0.00
2022-10-12T00:08:35.884Z,0.00
2022-10-12T00:09:35.914Z,0.00
2022-10-12T00:10:36.242Z,0.00
2022-10-12T00:11:35.980Z,0.00
2022-10-12T00:12:36.002Z,0.00
2022-10-12T00:13:36.036Z,0.00
2022-10-12T00:14:36.072Z,0.00
2022-10-12T00:15:36.126Z,0.00
2022-10-12T00:16:36.124Z,0.00
2022-10-12T00:17:36.809Z,0.00
2022-10-12T00:18:36.185Z,0.00
2022-10-12T00:19:36.223Z,0.00
2022-10-12T00:20:36.246Z,0.00
2022-10-12T00:21:36.283Z,0.00
2022-10-12T00:22:36.302Z,0.00
2022-10-12T00:23:36.342Z,0.00
2022-10-12T00:24:40.596Z,0.00
2022-10-12T00:25:36.396Z,0.00
2022-10-12T00:26:36.426Z,0.00
2022-10-12T00:27:36.835Z,0.00
2022-10-12T00:28:36.564Z,0.00
2022-10-12T00:29:36.518Z,0.00
2022-10-12T00:30:36.548Z,0.00
2022-10-12T00:32:36.935Z,0.00
2022-10-12T00:33:36.636Z,0.00
2022-10-12T00:34:36.670Z,0.00
2022-10-12T00:35:36.700Z,0.00
2022-10-12T00:36:36.732Z,0.00
2022-10-12T00:37:37.089Z,0.00
2022-10-12T00:38:36.789Z,0.00
2022-10-12T00:39:37.117Z,0.00
2022-10-12T00:40:36.854Z,0.00
2022-10-12T00:41:36.877Z,0.00
2022-10-12T00:42:36.907Z,0.00
2022-10-12T00:43:36.939Z,0.00
2022-10-12T00:44:36.972Z,0.00
2022-10-12T00:45:36.998Z,0.00
2022-10-12T00:46:37.382Z,0.00
2022-10-12T00:47:37.600Z,0.00
2022-10-12T00:48:37.114Z,0.00
2022-10-12T00:49:37.121Z,0.00
2022-10-12T00:50:37.153Z,0.00
2022-10-12T00:51:37.182Z,0.00
2022-10-12T00:52:37.212Z,0.00
2022-10-12T00:53:37.538Z,0.00
2022-10-12T00:54:37.271Z,0.00
2022-10-12T00:55:37.302Z,0.00
2022-10-12T00:56:37.331Z,0.00
2022-10-12T00:57:38.607Z,0.00
2022-10-12T00:58:37.391Z,0.00
2022-10-12T00:59:37.424Z,0.00
2022-10-12T01:00:38.338Z,0.00
2022-10-12T01:02:37.511Z,0.00
2022-10-12T01:03:37.543Z,0.00
2022-10-12T01:04:37.598Z,0.00
2022-10-12T01:05:37.637Z,0.00
2022-10-12T01:06:37.633Z,0.00
2022-10-12T01:07:38.373Z,0.00
2022-10-12T01:08:37.697Z,0.00
2022-10-12T01:09:37.726Z,0.00
2022-10-12T01:10:37.752Z,0.00
2022-10-12T01:11:37.811Z,0.00
2022-10-12T01:12:37.917Z,0.00
2022-10-12T01:13:37.865Z,0.00
2022-10-12T01:14:38.177Z,0.00
2022-10-12T01:15:37.911Z,0.00
2022-10-12T01:16:37.940Z,0.00
2022-10-12T01:17:38.364Z,0.00
2022-10-12T01:18:38.104Z,0.00
2022-10-12T01:19:38.026Z,0.00
2022-10-12T01:20:38.071Z,0.00
2022-10-12T01:21:38.389Z,0.00
2022-10-12T01:22:38.139Z,0.00
2022-10-12T01:23:38.173Z,0.00
2022-10-12T01:24:38.173Z,0.00
2022-10-12T01:25:38.261Z,0.00
2022-10-12T01:26:38.232Z,0.00
2022-10-12T01:27:38.542Z,0.00
2022-10-12T01:28:38.647Z,0.00
2022-10-12T01:29:38.327Z,0.00
2022-10-12T01:30:38.359Z,0.00
2022-10-12T01:31:38.393Z,0.00
2022-10-12T01:32:38.414Z,0.00
2022-10-12T01:33:38.495Z,0.00
2022-10-12T01:34:38.479Z,0.00
2022-10-12T01:35:38.808Z,0.00
2022-10-12T01:36:38.607Z,0.00
2022-10-12T01:37:38.827Z,0.00
2022-10-12T01:38:38.598Z,0.00
2022-10-12T01:39:38.628Z,0.00
2022-10-12T01:40:38.658Z,0.00
2022-10-12T01:41:38.692Z,0.00
2022-10-12T01:42:39.017Z,0.00
2022-10-12T01:43:38.747Z,0.00
2022-10-12T01:44:42.675Z,0.00
2022-10-12T01:45:38.806Z,0.00
2022-10-12T01:46:38.833Z,0.00
2022-10-12T01:47:39.360Z,0.00
2022-10-12T01:48:38.896Z,0.00
2022-10-12T01:49:39.232Z,0.00
2022-10-12T01:50:38.958Z,0.00
2022-10-12T01:51:38.992Z,0.00
2022-10-12T01:52:39.038Z,0.00
2022-10-12T01:53:39.049Z,0.00
2022-10-12T01:54:39.081Z,0.00
2022-10-12T01:55:39.106Z,0.00
2022-10-12T01:56:39.440Z,0.00
2022-10-12T01:57:39.595Z,0.00
2022-10-12T01:58:39.208Z,0.00
2022-10-12T01:59:39.239Z,0.00
2022-10-12T02:00:39.321Z,0.00
2022-10-12T02:01:39.327Z,0.00
2022-10-12T02:02:39.315Z,0.00
2022-10-12T02:03:39.646Z,0.00
2022-10-12T02:04:39.376Z,0.00
2022-10-12T02:05:39.408Z,0.00
2022-10-12T02:06:39.435Z,0.00
2022-10-12T02:07:39.775Z,0.00
2022-10-12T02:08:39.514Z,0.00
2022-10-12T02:09:39.530Z,0.00
2022-10-12T02:10:39.862Z,0.00
2022-10-12T02:11:39.636Z,0.00
2022-10-12T02:12:39.616Z,0.00
2022-10-12T02:13:39.649Z,0.00
2022-10-12T02:14:39.676Z,0.00
2022-10-12T02:15:39.709Z,0.00
2022-10-12T02:16:40.037Z,0.00
2022-10-12T02:17:40.030Z,0.00
2022-10-12T02:18:39.798Z,0.00
2022-10-12T02:19:39.829Z,0.00
2022-10-12T02:20:39.854Z,0.00
2022-10-12T02:21:39.894Z,0.00
2022-10-12T02:23:40.244Z,0.00
2022-10-12T02:25:40.034Z,0.00
2022-10-12T02:26:40.033Z,0.00
2022-10-12T02:27:40.320Z,0.00
2022-10-12T02:28:40.165Z,0.00
2022-10-12T02:29:40.425Z,0.00
2022-10-12T02:30:40.157Z,0.00
2022-10-12T02:31:40.186Z,0.00
2022-10-12T02:32:40.218Z,0.00
2022-10-12T02:33:40.249Z,0.00
2022-10-12T02:34:40.274Z,0.00
2022-10-12T02:35:40.611Z,0.00
2022-10-12T02:36:40.348Z,0.00
2022-10-12T02:37:40.648Z,0.00
2022-10-12T02:38:40.400Z,0.00
2022-10-12T02:39:40.524Z,0.00
2022-10-12T02:40:40.655Z,0.00
2022-10-12T02:41:40.510Z,0.00
2022-10-12T02:43:05.619Z,0.00
2022-10-12T02:43:40.550Z,0.00
2022-10-12T02:44:40.573Z,0.00
2022-10-12T02:45:40.603Z,0.00
2022-10-12T02:46:40.638Z,0.00
2022-10-12T02:47:40.670Z,0.00
2022-10-12T02:48:40.691Z,0.00
2022-10-12T02:49:41.025Z,0.00
2022-10-12T02:50:40.753Z,0.00
2022-10-12T02:51:40.784Z,0.00
2022-10-12T02:52:40.813Z,0.00
2022-10-12T02:53:40.850Z,0.00
2022-10-12T02:54:40.877Z,0.00
2022-10-12T02:55:40.909Z,0.00
2022-10-12T02:56:41.234Z,0.00
2022-10-12T02:57:40.987Z,0.00
2022-10-12T02:58:40.993Z,0.00
2022-10-12T02:59:41.033Z,0.00
2022-10-12T03:00:41.057Z,0.00
2022-10-12T03:01:41.226Z,0.00
2022-10-12T03:02:41.110Z,0.00
2022-10-12T03:03:41.441Z,0.00
2022-10-12T03:04:41.172Z,0.00
2022-10-12T03:05:41.200Z,0.00
2022-10-12T03:06:41.231Z,0.00
2022-10-12T03:07:41.345Z,0.00
2022-10-12T03:08:41.290Z,0.00
2022-10-12T03:09:41.321Z,0.00
2022-10-12T03:10:41.654Z,0.00
2022-10-12T03:11:41.380Z,0.00
2022-10-12T03:12:41.412Z,0.00
2022-10-12T03:13:41.461Z,0.00
2022-10-12T03:14:41.468Z,0.00
2022-10-12T03:15:41.502Z,0.00
2022-10-12T03:16:41.533Z,0.00
2022-10-12T03:17:41.863Z,0.00
2022-10-12T03:18:41.591Z,0.00
2022-10-12T03:19:41.632Z,0.00
2022-10-12T03:20:41.653Z,0.00
2022-10-12T03:21:41.679Z,0.00
2022-10-12T03:22:41.713Z,0.00
2022-10-12T03:23:41.740Z,0.00
2022-10-12T03:24:42.072Z,0.00
2022-10-12T03:25:41.805Z,0.00
2022-10-12T03:26:41.834Z,0.00
2022-10-12T03:27:41.858Z,0.00
2022-10-12T03:28:42.003Z,0.00
2022-10-12T03:29:41.951Z,0.00
2022-10-12T03:30:41.952Z,0.00
2022-10-12T03:31:42.285Z,0.00
2022-10-12T03:32:42.018Z,0.00
2022-10-12T03:33:42.038Z,0.00
2022-10-12T03:34:42.068Z,0.00
2022-10-12T03:35:42.099Z,0.00
2022-10-12T03:36:42.131Z,0.00
2022-10-12T03:38:42.186Z,0.00
2022-10-12T03:39:42.519Z,0.00
2022-10-12T03:40:42.249Z,0.00
2022-10-12T03:41:42.277Z,0.00
2022-10-12T03:42:42.307Z,0.00
2022-10-12T03:43:42.338Z,0.00
2022-10-12T03:44:42.370Z,0.00
2022-10-12T03:45:42.420Z,0.00
2022-10-12T03:46:42.725Z,0.00
2022-10-12T03:47:42.459Z,0.00
2022-10-12T03:48:42.489Z,0.00
2022-10-12T03:49:42.519Z,0.00
2022-10-12T03:50:42.544Z,0.00
2022-10-12T03:51:42.575Z,0.00
2022-10-12T03:52:42.608Z,0.00
2022-10-12T03:53:45.520Z,0.00
2022-10-12T03:54:42.772Z,0.00
2022-10-12T03:55:42.697Z,0.00
2022-10-12T03:56:42.725Z,0.00
2022-10-12T03:57:42.755Z,0.00
2022-10-12T03:58:42.783Z,0.00
2022-10-12T03:59:42.821Z,0.00
2022-10-12T04:00:43.147Z,0.00
2022-10-12T04:01:42.974Z,0.00
2022-10-12T04:02:42.903Z,0.00
2022-10-12T04:03:42.934Z,0.00
2022-10-12T04:04:42.973Z,0.00
2022-10-12T04:05:43.194Z,0.00
2022-10-12T04:06:43.023Z,0.00
2022-10-12T04:07:43.361Z,0.00
2022-10-12T04:08:46.046Z,0.00
2022-10-12T04:09:43.115Z,0.00
2022-10-12T04:10:43.147Z,0.00
2022-10-12T04:11:43.177Z,0.00
2022-10-12T04:12:43.203Z,0.00
2022-10-12T04:13:43.234Z,0.00
2022-10-12T04:14:43.562Z,0.00
2022-10-12T04:15:43.292Z,0.00
2022-10-12T04:16:43.324Z,0.00
2022-10-12T04:17:43.376Z,0.00
2022-10-12T04:18:43.389Z,0.00
2022-10-12T04:19:43.413Z,0.00
2022-10-12T04:20:43.446Z,0.00
2022-10-12T04:21:43.773Z,0.00
2022-10-12T04:22:43.501Z,0.00
2022-10-12T04:23:43.530Z,0.00
2022-10-12T04:24:43.561Z,0.00
2022-10-12T04:25:43.592Z,0.00
2022-10-12T04:26:43.618Z,0.00
2022-10-12T04:27:43.650Z,0.00
2022-10-12T04:28:44.015Z,0.00
2022-10-12T04:29:43.710Z,0.00
2022-10-12T04:30:43.747Z,0.00
2022-10-12T04:31:43.771Z,0.00
2022-10-12T04:32:43.808Z,0.00
2022-10-12T04:33:43.870Z,0.00
2022-10-12T04:34:44.159Z,0.00
2022-10-12T04:35:43.890Z,0.00
2022-10-12T04:36:43.916Z,0.00
2022-10-12T04:37:43.946Z,0.00
2022-10-12T04:38:43.978Z,0.00
2022-10-12T04:39:44.030Z,0.00
2022-10-12T04:40:44.374Z,0.00
2022-10-12T04:41:44.075Z,0.00
2022-10-12T04:42:44.100Z,0.00
2022-10-12T04:43:44.135Z,0.00
2022-10-12T04:44:44.157Z,0.00
2022-10-12T04:45:44.184Z,0.00
2022-10-12T04:46:44.517Z,0.00
2022-10-12T04:47:44.245Z,0.00
2022-10-12T04:48:44.274Z,0.00
2022-10-12T04:49:44.324Z,0.00
2022-10-12T04:50:44.334Z,0.00
2022-10-12T04:51:44.368Z,0.00
2022-10-12T04:52:44.396Z,0.00
2022-10-12T04:53:44.723Z,0.00
2022-10-12T04:54:44.452Z,0.00
2022-10-12T04:55:44.589Z,0.00
2022-10-12T04:56:47.842Z,0.00
2022-10-12T04:57:44.542Z,0.00
2022-10-12T04:58:44.574Z,0.00
2022-10-12T04:59:44.604Z,0.00
2022-10-12T05:00:44.936Z,0.00
2022-10-12T05:01:44.745Z,0.00
2022-10-12T05:02:44.707Z,0.00
2022-10-12T05:03:44.719Z,0.00
2022-10-12T05:04:44.757Z,0.00
2022-10-12T05:05:44.799Z,0.00
2022-10-12T05:06:44.809Z,0.00
2022-10-12T05:07:45.144Z,0.00
2022-10-12T05:08:44.868Z,0.00
2022-10-12T05:09:44.903Z,0.00
2022-10-12T05:10:44.934Z,0.00
2022-10-12T05:11:44.959Z,0.00
2022-10-12T05:12:44.991Z,0.00
2022-10-12T05:13:45.022Z,0.00
2022-10-12T05:14:45.348Z,0.00
2022-10-12T05:15:45.084Z,0.00
2022-10-12T05:16:45.109Z,0.00
2022-10-12T05:17:45.137Z,0.00
2022-10-12T05:18:45.168Z,0.00
2022-10-12T05:19:45.197Z,0.00
2022-10-12T05:20:45.225Z,0.00
2022-10-12T05:21:45.590Z,0.00
2022-10-12T05:22:45.286Z,0.00
2022-10-12T05:23:45.323Z,0.00
2022-10-12T05:24:47.941Z,0.00
2022-10-12T05:25:45.387Z,4.00
2022-10-12T05:26:45.405Z,4.00
2022-10-12T05:27:45.436Z,0.00
2022-10-12T05:28:45.870Z,4.00
2022-10-12T05:29:45.501Z,4.00
2022-10-12T05:30:45.524Z,4.00
2022-10-12T05:31:45.571Z,8.00
2022-10-12T05:32:45.604Z,8.00
2022-10-12T05:33:45.615Z,8.00
2022-10-12T05:34:45.642Z,12.00
2022-10-12T05:35:48.787Z,12.00
2022-10-12T05:36:45.703Z,16.00
2022-10-12T05:37:45.754Z,20.00
2022-10-12T05:38:45.779Z,20.00
2022-10-12T05:39:45.794Z,24.00
2022-10-12T05:40:45.821Z,28.00
2022-10-12T05:41:45.853Z,32.00
2022-10-12T05:42:46.185Z,36.00
2022-10-12T05:43:45.907Z,40.00
2022-10-12T05:44:45.941Z,44.00
2022-10-12T05:45:45.973Z,52.00
2022-10-12T05:46:46.012Z,60.00
2022-10-12T05:47:46.032Z,68.00
2022-10-12T05:48:46.059Z,76.00
2022-10-12T05:49:46.390Z,84.00
2022-10-12T05:50:46.130Z,92.00
2022-10-12T05:51:46.152Z,104.00
2022-10-12T05:52:46.174Z,116.00
2022-10-12T05:53:46.228Z,124.00
2022-10-12T05:54:46.240Z,136.00
2022-10-12T05:55:46.266Z,148.00
2022-10-12T05:56:46.595Z,160.00
2022-10-12T05:57:49.712Z,172.00
2022-10-12T05:58:46.356Z,180.00
2022-10-12T05:59:46.384Z,196.00
2022-10-12T06:00:46.424Z,204.00
2022-10-12T06:01:46.493Z,220.00
2022-10-12T06:02:46.477Z,232.00
2022-10-12T06:03:46.804Z,248.00
2022-10-12T06:04:46.549Z,260.00
2022-10-12T06:05:46.569Z,272.00
2022-10-12T06:06:46.610Z,280.00
2022-10-12T06:07:46.625Z,292.00
2022-10-12T06:08:46.656Z,320.00
2022-10-12T06:09:46.700Z,336.00
2022-10-12T06:10:47.013Z,360.00
2022-10-12T06:11:46.744Z,376.00
2022-10-12T06:12:46.769Z,392.00
2022-10-12T06:13:46.804Z,404.00
2022-10-12T06:14:46.830Z,416.00
2022-10-12T06:15:46.864Z,436.00
2022-10-12T06:16:49.056Z,452.00
2022-10-12T06:17:47.221Z,464.00
2022-10-12T06:18:46.951Z,480.00
2022-10-12T06:19:46.982Z,496.00
2022-10-12T06:20:47.007Z,512.00
2022-10-12T06:21:47.038Z,528.00
2022-10-12T06:22:47.088Z,548.00
2022-10-12T06:23:47.405Z,568.00
2022-10-12T06:24:47.136Z,588.00
2022-10-12T06:25:47.180Z,604.00
2022-10-12T06:26:47.285Z,628.00
2022-10-12T06:27:47.473Z,652.00
2022-10-12T06:28:47.510Z,672.00
2022-10-12T06:29:47.763Z,696.00
2022-10-12T06:30:47.683Z,724.00
2022-10-12T06:31:51.606Z,752.00
2022-10-12T06:32:47.550Z,776.00
2022-10-12T06:33:47.396Z,816.00
2022-10-12T06:34:47.420Z,864.00
2022-10-12T06:35:47.755Z,896.00
2022-10-12T06:36:47.480Z,920.00
2022-10-12T06:37:49.988Z,944.00
2022-10-12T06:38:47.546Z,968.00
2022-10-12T06:39:47.575Z,988.00
2022-10-12T06:40:47.611Z,1012.00
2022-10-12T06:41:47.654Z,1032.00
2022-10-12T06:43:47.997Z,1072.00
2022-10-12T06:44:47.732Z,1092.00
2022-10-12T06:45:47.756Z,1104.00
2022-10-12T06:46:47.784Z,1124.00
2022-10-12T06:47:47.806Z,1144.00
2022-10-12T06:48:47.847Z,1164.00
2022-10-12T06:49:48.168Z,1180.00
2022-10-12T06:50:47.896Z,1208.00
2022-10-12T06:51:47.925Z,1224.00
2022-10-12T06:52:47.982Z,1240.00
2022-10-12T06:53:47.986Z,1292.00
2022-10-12T06:54:48.013Z,1316.00
2022-10-12T06:55:48.048Z,1320.00
2022-10-12T06:56:48.375Z,1316.00
2022-10-12T06:57:48.126Z,1304.00
2022-10-12T06:58:48.139Z,1320.00
2022-10-12T06:59:48.164Z,1332.00
2022-10-12T07:00:48.196Z,1348.00
2022-10-12T07:01:48.350Z,1364.00
2022-10-12T07:02:48.262Z,1416.00
2022-10-12T07:03:48.585Z,1472.00
2022-10-12T07:04:48.319Z,1496.00
2022-10-12T07:05:48.342Z,1524.00
2022-10-12T07:06:48.371Z,1552.00
2022-10-12T07:07:48.399Z,1584.00
2022-10-12T07:08:48.436Z,1604.00
2022-10-12T07:09:48.467Z,1624.00
2022-10-12T07:10:48.793Z,1628.00
2022-10-12T07:11:48.524Z,1656.00
2022-10-12T07:12:48.554Z,1664.00
2022-10-12T07:14:48.633Z,1652.00
2022-10-12T07:15:49.242Z,1628.00
2022-10-12T07:16:52.865Z,1584.00
2022-10-12T07:17:49.051Z,1620.00
2022-10-12T07:18:48.729Z,1624.00
2022-10-12T07:19:48.768Z,1612.00
2022-10-12T07:20:48.796Z,1604.00
2022-10-12T07:21:48.821Z,1600.00
2022-10-12T07:22:48.846Z,1596.00
2022-10-12T07:23:48.894Z,1596.00
2022-10-12T07:24:49.210Z,1592.00
2022-10-12T07:25:48.940Z,1596.00
2022-10-12T07:26:49.068Z,1596.00
2022-10-12T07:27:49.000Z,1596.00
2022-10-12T07:28:49.111Z,1592.00
2022-10-12T07:29:49.060Z,1596.00
2022-10-12T07:30:49.107Z,1596.00
2022-10-12T07:31:51.982Z,1588.00
2022-10-12T07:32:49.179Z,1588.00
2022-10-12T07:33:49.176Z,1572.00
2022-10-12T07:34:49.209Z,1512.00
2022-10-12T07:36:10.805Z,1468.00
2022-10-12T07:36:59.150Z,1632.00
2022-10-12T07:37:49.293Z,1640.00
2022-10-12T07:38:49.636Z,1644.00
2022-10-12T07:39:49.357Z,1648.00
2022-10-12T07:40:49.393Z,1656.00
2022-10-12T07:41:49.420Z,1660.00
2022-10-12T07:43:14.789Z,1668.00
2022-10-12T07:43:49.476Z,1668.00
2022-10-12T07:44:49.514Z,1660.00
2022-10-12T07:45:49.851Z,1680.00
2022-10-12T07:46:49.614Z,1660.00
2022-10-12T07:47:49.606Z,1616.00
2022-10-12T07:48:50.557Z,1700.00
2022-10-12T07:49:49.655Z,1752.00
2022-10-12T07:50:49.689Z,1764.00
2022-10-12T07:51:49.721Z,1800.00
2022-10-12T07:52:50.048Z,1844.00
2022-10-12T07:53:49.783Z,1864.00
2022-10-12T07:54:49.833Z,1896.00
2022-10-12T07:55:49.860Z,1944.00
2022-10-12T07:56:49.940Z,1972.00
2022-10-12T07:57:49.933Z,2012.00
2022-10-12T07:58:49.921Z,2044.00
2022-10-12T07:59:50.253Z,2036.00
2022-10-12T08:00:50.005Z,2068.00
2022-10-12T08:01:50.177Z,2124.00
2022-10-12T08:02:50.062Z,2164.00
2022-10-12T08:03:50.072Z,2184.00
2022-10-12T08:04:50.106Z,2200.00
2022-10-12T08:05:50.154Z,2216.00
2022-10-12T08:06:50.468Z,2228.00
2022-10-12T08:07:50.191Z,2240.00
2022-10-12T08:08:50.223Z,2244.00
2022-10-12T08:09:50.252Z,2260.00
2022-10-12T08:10:50.287Z,2264.00
2022-10-12T08:11:50.312Z,2272.00
2022-10-12T08:12:52.300Z,2280.00
2022-10-12T08:13:50.377Z,2292.00
2022-10-12T08:14:50.411Z,2300.00
2022-10-12T08:15:50.434Z,2316.00
2022-10-12T08:16:50.463Z,2328.00
2022-10-12T08:18:50.847Z,2312.00
2022-10-12T08:19:50.559Z,2412.00
2022-10-12T08:20:50.583Z,2496.00
2022-10-12T08:21:50.617Z,2492.00
2022-10-12T08:22:50.645Z,2444.00
2022-10-12T08:23:50.683Z,2420.00
2022-10-12T08:24:51.013Z,2540.00
2022-10-12T08:25:50.734Z,2556.00
2022-10-12T08:26:50.768Z,2552.00
2022-10-12T08:27:50.796Z,2512.00
2022-10-12T08:28:50.888Z,2480.00
2022-10-12T08:29:50.860Z,2440.00
2022-10-12T08:30:50.891Z,2404.00
2022-10-12T08:31:51.221Z,2360.00
2022-10-12T08:32:50.942Z,2356.00
2022-10-12T08:33:50.974Z,2380.00
2022-10-12T08:34:51.099Z,2384.00
2022-10-12T08:35:51.037Z,2388.00
2022-10-12T08:36:51.069Z,2264.00
2022-10-12T08:37:51.093Z,2304.00
2022-10-12T08:38:51.426Z,2212.00
2022-10-12T08:39:51.155Z,2144.00
2022-10-12T08:40:51.187Z,2156.00
2022-10-12T08:41:51.221Z,2172.00
2022-10-12T08:42:51.247Z,2300.00
2022-10-12T08:43:51.283Z,2344.00
2022-10-12T08:44:51.304Z,2260.00
2022-10-12T08:45:51.639Z,2172.00
2022-10-12T08:46:51.368Z,2204.00
2022-10-12T08:47:51.408Z,2308.00
2022-10-12T08:48:51.426Z,2428.00
2022-10-12T08:49:51.459Z,2516.00
2022-10-12T08:50:51.555Z,2556.00
2022-10-12T08:51:51.524Z,2552.00
2022-10-12T08:52:51.857Z,2640.00
2022-10-12T08:53:51.599Z,2580.00
2022-10-12T08:54:51.606Z,2652.00
2022-10-12T08:55:51.836Z,2784.00
2022-10-12T08:56:51.671Z,2892.00
2022-10-12T08:57:51.701Z,3092.00
2022-10-12T08:58:51.728Z,3240.00
2022-10-12T08:59:52.305Z,3284.00
2022-10-12T09:00:51.788Z,3408.00
2022-10-12T09:01:51.928Z,3552.00
2022-10-12T09:02:51.853Z,3624.00
2022-10-12T09:03:51.889Z,3684.00
2022-10-12T09:04:51.914Z,3772.00
2022-10-12T09:05:51.945Z,3900.00
2022-10-12T09:06:52.290Z,4000.00
2022-10-12T09:07:52.007Z,4108.00
2022-10-12T09:08:52.037Z,4148.00
2022-10-12T09:09:52.065Z,4184.00
2022-10-12T09:10:52.095Z,4148.00
2022-10-12T09:11:52.135Z,4112.00
2022-10-12T09:12:52.166Z,4064.00
2022-10-12T09:13:52.540Z,3992.00
2022-10-12T09:15:52.249Z,3948.00
2022-10-12T09:16:52.277Z,3920.00
2022-10-12T09:17:52.310Z,3856.00
2022-10-12T09:18:52.353Z,3832.00
2022-10-12T09:19:52.381Z,3780.00
2022-10-12T09:20:52.704Z,3748.00
2022-10-12T09:21:52.429Z,3696.00
2022-10-12T09:22:52.480Z,3632.00
2022-10-12T09:23:52.493Z,3596.00
2022-10-12T09:24:52.527Z,3492.00
2022-10-12T09:25:52.551Z,3396.00
2022-10-12T09:26:52.585Z,3300.00
2022-10-12T09:27:52.914Z,3216.00
2022-10-12T09:28:52.689Z,3156.00
2022-10-12T09:29:52.673Z,3112.00
2022-10-12T09:31:52.743Z,3060.00
2022-10-12T09:32:52.764Z,3048.00
2022-10-12T09:33:52.805Z,3020.00
2022-10-12T09:34:53.132Z,2976.00
2022-10-12T09:35:52.858Z,2980.00
2022-10-12T09:36:52.886Z,3000.00
2022-10-12T09:37:52.921Z,3060.00
2022-10-12T09:38:52.974Z,3216.00
2022-10-12T09:39:52.986Z,3228.00
2022-10-12T09:40:53.010Z,3200.00
2022-10-12T09:41:53.352Z,3192.00
2022-10-12T09:42:53.107Z,3128.00
2022-10-12T09:43:53.106Z,3112.00
2022-10-12T09:44:53.138Z,3016.00
2022-10-12T09:45:53.165Z,2896.00
2022-10-12T09:46:53.202Z,2928.00
2022-10-12T09:47:53.229Z,3080.00
2022-10-12T09:48:53.562Z,3088.00
2022-10-12T09:49:53.290Z,3016.00
2022-10-12T09:50:53.321Z,3008.00
2022-10-12T09:51:53.352Z,3076.00
2022-10-12T09:52:53.381Z,3120.00
2022-10-12T09:53:57.484Z,3168.00
2022-10-12T09:54:53.480Z,3192.00
2022-10-12T09:55:53.778Z,3224.00
2022-10-12T09:56:53.505Z,3256.00
2022-10-12T09:57:53.535Z,3312.00
2022-10-12T09:58:53.560Z,3364.00
2022-10-12T09:59:53.594Z,3408.00
2022-10-12T10:00:53.625Z,3432.00
2022-10-12T10:01:53.991Z,3456.00
2022-10-12T10:02:53.688Z,3464.00
2022-10-12T10:03:53.719Z,3448.00
2022-10-12T10:04:53.751Z,3392.00
2022-10-12T10:05:53.779Z,3356.00
2022-10-12T10:06:53.809Z,3272.00
2022-10-12T10:08:54.174Z,3100.00
2022-10-12T10:09:53.904Z,3016.00
2022-10-12T10:10:53.958Z,2988.00
2022-10-12T10:11:53.961Z,2984.00
2022-10-12T10:12:54.045Z,2860.00
2022-10-12T10:13:54.028Z,2888.00
2022-10-12T10:14:54.358Z,2876.00
2022-10-12T10:15:54.086Z,2728.00
2022-10-12T10:16:54.124Z,2724.00
2022-10-12T10:17:54.148Z,2704.00
2022-10-12T10:18:54.181Z,2576.00
2022-10-12T10:19:54.217Z,2612.00
2022-10-12T10:20:54.560Z,2660.00
2022-10-12T10:21:54.276Z,2712.00
2022-10-12T10:22:54.306Z,2760.00
2022-10-12T10:23:54.337Z,2728.00
2022-10-12T10:24:59.762Z,2712.00
2022-10-12T10:25:54.403Z,2524.00
2022-10-12T10:26:54.547Z,2556.00
2022-10-12T10:27:54.756Z,2536.00
2022-10-12T10:28:54.551Z,2484.00
2022-10-12T10:30:04.688Z,2400.00
2022-10-12T10:30:54.553Z,2484.00
2022-10-12T10:31:54.581Z,2444.00
2022-10-12T10:33:54.647Z,2504.00
2022-10-12T10:34:54.678Z,2496.00
2022-10-12T10:35:54.707Z,2392.00
2022-10-12T10:36:54.740Z,2320.00
2022-10-12T10:37:54.772Z,2304.00
2022-10-12T10:38:54.796Z,2280.00
2022-10-12T10:39:54.836Z,2448.00
2022-10-12T10:40:55.159Z,2460.00
2022-10-12T10:41:54.892Z,2428.00
2022-10-12T10:42:54.945Z,2424.00
2022-10-12T10:43:54.954Z,2444.00
2022-10-12T10:44:54.983Z,2456.00
2022-10-12T10:45:55.018Z,2456.00
2022-10-12T10:46:55.055Z,2464.00
2022-10-12T10:47:55.384Z,2444.00
2022-10-12T10:48:55.116Z,2424.00
2022-10-12T10:49:55.137Z,2420.00
2022-10-12T10:50:55.171Z,2408.00
2022-10-12T10:51:55.204Z,2404.00
2022-10-12T10:52:55.239Z,2404.00
2022-10-12T10:53:55.267Z,2368.00
2022-10-12T10:54:55.601Z,2400.00
2022-10-12T10:55:55.328Z,2336.00
2022-10-12T10:56:55.355Z,2308.00
2022-10-12T10:57:55.385Z,2348.00
2022-10-12T10:58:55.439Z,2348.00
2022-10-12T10:59:55.454Z,2328.00
2022-10-12T11:00:55.482Z,2332.00
2022-10-12T11:01:55.887Z,2360.00
2022-10-12T11:02:55.545Z,2388.00
2022-10-12T11:03:55.583Z,2360.00
2022-10-12T11:04:55.605Z,2328.00
2022-10-12T11:05:55.642Z,2380.00
2022-10-12T11:06:55.673Z,2384.00
2022-10-12T11:07:55.701Z,2420.00
2022-10-12T11:08:56.045Z,2388.00
2022-10-12T11:09:55.765Z,2344.00
2022-10-12T11:10:55.792Z,2292.00
2022-10-12T11:11:55.824Z,2188.00
2022-10-12T11:12:55.852Z,2180.00
2022-10-12T11:13:55.886Z,2044.00
2022-10-12T11:14:55.943Z,2052.00
2022-10-12T11:15:56.250Z,2112.00
2022-10-12T11:16:55.977Z,2188.00
2022-10-12T11:17:56.015Z,2168.00
2022-10-12T11:18:56.047Z,2192.00
2022-10-12T11:20:56.137Z,2256.00
2022-10-12T11:21:56.135Z,2400.00
2022-10-12T11:22:57.568Z,2404.00
2022-10-12T11:23:56.203Z,2424.00
2022-10-12T11:24:56.231Z,2376.00
2022-10-12T11:25:56.261Z,2520.00
2022-10-12T11:26:56.299Z,2552.00
2022-10-12T11:27:56.328Z,2528.00
2022-10-12T11:28:56.738Z,2476.00
2022-10-12T11:30:08.342Z,2460.00
2022-10-12T11:30:56.447Z,2528.00
2022-10-12T11:31:56.450Z,2576.00
2022-10-12T11:32:56.484Z,2684.00
2022-10-12T11:33:56.509Z,2832.00
2022-10-12T11:34:56.845Z,2888.00
2022-10-12T11:35:56.571Z,2944.00
2022-10-12T11:37:18.356Z,2960.00
2022-10-12T11:37:56.637Z,2952.00
2022-10-12T11:38:56.675Z,2976.00
2022-10-12T11:39:56.740Z,2936.00
2022-10-12T11:41:19.168Z,2972.00
2022-10-12T11:42:20.404Z,2888.00
2022-10-12T11:42:56.792Z,2872.00
2022-10-12T11:43:56.823Z,2928.00
2022-10-12T11:44:56.910Z,2988.00
2022-10-12T11:45:56.891Z,3072.00
2022-10-12T11:46:56.947Z,3128.00
2022-10-12T11:47:57.249Z,3120.00
2022-10-12T11:48:56.987Z,3132.00
2022-10-12T11:49:57.014Z,3192.00
2022-10-12T11:51:00.079Z,3168.00
2022-10-12T11:51:57.073Z,3164.00
2022-10-12T11:52:57.105Z,3128.00
2022-10-12T11:53:57.136Z,3192.00
2022-10-12T11:54:57.466Z,3224.00
2022-10-12T11:55:57.204Z,3228.00
2022-10-12T11:56:57.237Z,3196.00
2022-10-12T11:57:57.260Z,3220.00
2022-10-12T11:59:01.060Z,3276.00
2022-10-12T11:59:57.330Z,3308.00
2022-10-12T12:00:57.410Z,3204.00
2022-10-12T12:01:57.686Z,3068.00
2022-10-12T12:02:57.452Z,2964.00
2022-10-12T12:03:57.496Z,2872.00
2022-10-12T12:04:57.488Z,2844.00
2022-10-12T12:05:57.511Z,2808.00
2022-10-12T12:06:57.547Z,2788.00
2022-10-12T12:07:57.577Z,2792.00
2022-10-12T12:08:57.909Z,2808.00
2022-10-12T12:09:57.646Z,2808.00
2022-10-12T12:10:57.672Z,2852.00
2022-10-12T12:11:57.770Z,2972.00
2022-10-12T12:12:57.755Z,3128.00
2022-10-12T12:13:57.764Z,3300.00
2022-10-12T12:14:57.797Z,3324.00
2022-10-12T12:15:58.133Z,3440.00
2022-10-12T12:16:57.862Z,3492.00
2022-10-12T12:17:57.899Z,3624.00
2022-10-12T12:18:58.072Z,3748.00
2022-10-12T12:19:57.957Z,3864.00
2022-10-12T12:20:57.991Z,3928.00
2022-10-12T12:21:58.016Z,4028.00
2022-10-12T12:22:58.353Z,4104.00
2022-10-12T12:23:58.082Z,4044.00
2022-10-12T12:24:58.110Z,4028.00
2022-10-12T12:25:58.149Z,4004.00
2022-10-12T12:26:58.203Z,4000.00
2022-10-12T12:27:58.208Z,4076.00
2022-10-12T12:28:58.275Z,4052.00
2022-10-12T12:29:58.573Z,4128.00
2022-10-12T12:30:58.302Z,4120.00
2022-10-12T12:31:58.336Z,4192.00
2022-10-12T12:32:58.365Z,4244.00
2022-10-12T12:33:58.399Z,4320.00
2022-10-12T12:35:00.804Z,4364.00
2022-10-12T12:35:58.463Z,4424.00
2022-10-12T12:36:58.800Z,4492.00
2022-10-12T12:37:58.528Z,4560.00
2022-10-12T12:38:58.558Z,4616.00
2022-10-12T12:39:58.589Z,4656.00
2022-10-12T12:40:58.618Z,4684.00
2022-10-12T12:42:01.939Z,4708.00
2022-10-12T12:42:58.681Z,4728.00
2022-10-12T12:43:59.023Z,4744.00
2022-10-12T12:44:58.752Z,4760.00
2022-10-12T12:45:58.776Z,4784.00
2022-10-12T12:46:58.814Z,4808.00
2022-10-12T12:47:58.948Z,4808.00
2022-10-12T12:48:58.880Z,4808.00
2022-10-12T12:49:59.024Z,4840.00
2022-10-12T12:50:59.323Z,4860.00
2022-10-12T12:51:58.970Z,4868.00